createdAt,value
2022-09-13T00:01:24.250Z,100.00
2022-09-13T00:03:53.266Z,100.00
2022-09-13T00:06:24.343Z,100.00
2022-09-13T00:08:54.539Z,100.00
2022-09-13T00:11:29.131Z,100.00
2022-09-13T00:13:58.835Z,100.00
2022-09-13T00:16:29.607Z,100.00
2022-09-13T00:19:01.337Z,100.00
2022-09-13T00:21:30.359Z,100.00
2022-09-13T00:23:59.415Z,100.00
2022-09-13T00:26:30.074Z,100.00
2022-09-13T00:29:00.684Z,100.00
2022-09-13T00:31:30.098Z,100.00
2022-09-13T00:34:01.103Z,100.00
2022-09-13T00:36:30.293Z,100.00
2022-09-13T00:39:01.287Z,100.00
2022-09-13T00:41:30.353Z,100.00
2022-09-13T00:44:02.247Z,100.00
2022-09-13T00:46:49.852Z,100.00
2022-09-13T00:49:24.743Z,100.00
2022-09-13T00:51:59.292Z,100.00
2022-09-13T00:54:31.358Z,100.00
2022-09-13T00:57:03.351Z,100.00
2022-09-13T00:59:38.007Z,100.00
2022-09-13T01:02:07.077Z,100.00
2022-09-13T01:04:37.926Z,100.00
2022-09-13T01:07:09.810Z,100.00
2022-09-13T01:09:42.040Z,100.00
2022-09-13T01:12:32.296Z,100.00
2022-09-13T01:15:04.489Z,100.00
2022-09-13T01:17:35.495Z,100.00
2022-09-13T01:20:06.119Z,100.00
2022-09-13T01:22:53.245Z,100.00
2022-09-13T01:25:34.100Z,100.00
2022-09-13T01:28:08.586Z,100.00
2022-09-13T01:30:43.861Z,100.00
2022-09-13T01:33:30.808Z,100.00
2022-09-13T01:36:22.446Z,100.00
2022-09-13T01:39:06.337Z,100.00
2022-09-13T01:41:56.636Z,100.00
2022-09-13T01:44:45.250Z,100.00
2022-09-13T01:47:25.990Z,100.00
2022-09-13T01:50:00.628Z,100.00
2022-09-13T01:52:41.954Z,100.00
2022-09-13T01:55:13.850Z,100.00
2022-09-13T01:57:52.203Z,100.00
2022-09-13T02:00:21.722Z,100.00
2022-09-13T02:03:11.042Z,100.00
2022-09-13T02:05:42.893Z,100.00
2022-09-13T02:08:36.094Z,100.00
2022-09-13T02:11:21.508Z,100.00
2022-09-13T02:14:13.193Z,100.00
2022-09-13T02:16:45.909Z,100.00
2022-09-13T02:19:34.185Z,100.00
2022-09-13T02:22:06.027Z,100.00
2022-09-13T02:24:41.258Z,100.00
2022-09-13T02:27:13.187Z,100.00
2022-09-13T02:29:45.528Z,100.00
2022-09-13T02:32:20.327Z,100.00
2022-09-13T02:34:55.166Z,100.00
2022-09-13T02:37:26.783Z,100.00
2022-09-13T02:39:58.743Z,100.00
2022-09-13T02:42:42.571Z,100.00
2022-09-13T02:45:14.037Z,100.00
2022-09-13T02:47:49.109Z,100.00
2022-09-13T02:50:46.566Z,100.00
2022-09-13T02:53:21.222Z,100.00
2022-09-13T02:55:56.006Z,100.00
2022-09-13T02:58:35.032Z,100.00
2022-09-13T03:01:04.219Z,100.00
2022-09-13T03:03:33.311Z,100.00
2022-09-13T03:06:02.793Z,100.00
2022-09-13T03:08:32.628Z,100.00
2022-09-13T03:11:13.684Z,100.00
2022-09-13T03:13:56.872Z,100.00
2022-09-13T03:16:33.066Z,100.00
2022-09-13T03:19:04.976Z,100.00
2022-09-13T03:21:46.114Z,100.00
2022-09-13T03:24:24.795Z,100.00
2022-09-13T03:26:59.218Z,100.00
2022-09-13T03:29:50.598Z,100.00
2022-09-13T03:32:31.514Z,100.00
2022-09-13T03:35:12.142Z,100.00
2022-09-13T03:37:55.955Z,100.00
2022-09-13T03:40:37.027Z,100.00
2022-09-13T03:43:12.197Z,100.00
2022-09-13T03:45:46.944Z,100.00
2022-09-13T03:48:17.574Z,100.00
2022-09-13T03:50:50.063Z,100.00
2022-09-13T03:53:21.934Z,100.00
2022-09-13T03:55:50.964Z,100.00
2022-09-13T03:58:21.807Z,100.00
2022-09-13T04:00:50.858Z,100.00
2022-09-13T04:03:20.116Z,100.00
2022-09-13T04:05:49.152Z,100.00
2022-09-13T04:08:18.366Z,100.00
2022-09-13T04:10:48.988Z,100.00
2022-09-13T04:13:18.302Z,100.00
2022-09-13T04:15:47.297Z,100.00
2022-09-13T04:18:16.273Z,100.00
2022-09-13T04:20:45.573Z,100.00
2022-09-13T04:23:14.617Z,100.00
2022-09-13T04:25:43.605Z,100.00
2022-09-13T04:28:12.578Z,100.00
2022-09-13T04:30:42.984Z,100.00
2022-09-13T04:33:11.967Z,100.00
2022-09-13T04:35:41.255Z,100.00
2022-09-13T04:38:10.454Z,100.00
2022-09-13T04:40:39.686Z,100.00
2022-09-13T04:43:08.650Z,100.00
2022-09-13T04:45:39.473Z,100.00
2022-09-13T04:48:09.069Z,100.00
2022-09-13T04:50:38.183Z,100.00
2022-09-13T04:53:07.212Z,100.00
2022-09-13T04:55:37.057Z,100.00
2022-09-13T04:58:06.075Z,100.00
2022-09-13T05:00:35.808Z,100.00
2022-09-13T05:03:04.833Z,100.00
2022-09-13T05:05:34.080Z,100.00
2022-09-13T05:08:03.738Z,100.00
2022-09-13T05:10:32.832Z,100.00
2022-09-13T05:13:01.818Z,100.00
2022-09-13T05:15:30.818Z,100.00
2022-09-13T05:17:59.822Z,100.00
2022-09-13T05:20:28.860Z,100.00
2022-09-13T05:22:57.860Z,100.00
2022-09-13T05:25:26.882Z,100.00
2022-09-13T05:27:55.829Z,100.00
2022-09-13T05:30:24.853Z,100.00
2022-09-13T05:32:53.950Z,100.00
2022-09-13T05:35:22.882Z,100.00
2022-09-13T05:37:51.845Z,100.00
2022-09-13T05:40:20.810Z,100.00
2022-09-13T05:42:49.852Z,100.00
2022-09-13T05:45:18.909Z,100.00
2022-09-13T05:47:50.756Z,100.00
2022-09-13T05:50:45.094Z,100.00
2022-09-13T05:52:55.828Z,100.00
2022-09-13T05:55:25.135Z,100.00
2022-09-13T05:57:54.105Z,100.00
2022-09-13T06:00:23.055Z,100.00
2022-09-13T06:02:52.066Z,100.00
2022-09-13T06:05:20.993Z,100.00
2022-09-13T06:07:50.151Z,100.00
2022-09-13T06:10:20.477Z,100.00
2022-09-13T06:12:51.104Z,100.00
2022-09-13T06:15:20.153Z,100.00
2022-09-13T06:17:49.191Z,100.00
2022-09-13T06:20:18.381Z,100.00
2022-09-13T06:22:49.471Z,100.00
2022-09-13T06:25:18.595Z,100.00
2022-09-13T06:27:50.356Z,100.00
2022-09-13T06:30:19.866Z,100.00
2022-09-13T06:32:48.965Z,100.00
2022-09-13T06:35:18.040Z,100.00
2022-09-13T06:37:47.032Z,100.00
2022-09-13T06:40:17.656Z,100.00
2022-09-13T06:42:47.785Z,100.00
2022-09-13T06:45:17.090Z,100.00
2022-09-13T06:47:46.111Z,100.00
2022-09-13T06:50:15.056Z,100.00
2022-09-13T06:52:44.031Z,100.00
2022-09-13T06:55:13.099Z,100.00
2022-09-13T06:57:42.301Z,100.00
2022-09-13T07:00:12.628Z,100.00
2022-09-13T07:02:41.650Z,100.00
2022-09-13T07:05:11.341Z,100.00
2022-09-13T07:07:41.049Z,100.00
2022-09-13T07:10:10.913Z,100.00
2022-09-13T07:12:43.857Z,100.00
2022-09-13T07:15:13.156Z,100.00
2022-09-13T07:17:42.271Z,100.00
2022-09-13T07:20:11.736Z,100.00
2022-09-13T07:22:42.726Z,100.00
2022-09-13T07:25:12.846Z,100.00
2022-09-13T07:27:42.247Z,100.00
2022-09-13T07:30:11.846Z,100.00
2022-09-13T07:32:42.047Z,100.00
2022-09-13T07:35:12.009Z,100.00
2022-09-13T07:37:42.694Z,100.00
2022-09-13T07:40:12.665Z,100.00
2022-09-13T07:42:41.695Z,100.00
2022-09-13T07:45:13.059Z,100.00
2022-09-13T07:47:42.925Z,100.00
2022-09-13T07:50:12.141Z,100.00
2022-09-13T07:52:41.470Z,100.00
2022-09-13T07:55:11.083Z,100.00
2022-09-13T07:57:40.074Z,100.00
2022-09-13T08:00:11.238Z,100.00
2022-09-13T08:02:40.395Z,100.00
2022-09-13T08:05:09.708Z,100.00
2022-09-13T08:07:38.693Z,100.00
2022-09-13T08:10:08.310Z,100.00
2022-09-13T08:12:37.294Z,100.00
2022-09-13T08:15:06.919Z,100.00
2022-09-13T08:17:35.922Z,100.00
2022-09-13T08:20:06.296Z,100.00
2022-09-13T08:22:35.518Z,100.00
2022-09-13T08:25:04.706Z,100.00
2022-09-13T08:27:33.745Z,83.38
2022-09-13T08:30:02.774Z,74.97
2022-09-13T08:32:31.833Z,74.97
2022-09-13T08:35:00.788Z,72.71
2022-09-13T08:37:29.805Z,67.79
2022-09-13T08:39:58.840Z,69.62
2022-09-13T08:42:42.766Z,62.41
2022-09-13T08:45:12.137Z,59.40
2022-09-13T08:47:48.438Z,61.46
2022-09-13T08:50:20.367Z,61.46
2022-09-13T08:53:09.157Z,53.42
2022-09-13T08:55:41.324Z,53.42
2022-09-13T08:58:30.228Z,61.04
2022-09-13T09:01:11.219Z,62.65
2022-09-13T09:03:49.442Z,62.65
2022-09-13T09:06:19.737Z,67.29
2022-09-13T09:08:54.143Z,60.66
2022-09-13T09:11:31.767Z,60.66
2022-09-13T09:14:06.576Z,57.33
2022-09-13T09:16:38.542Z,57.73
2022-09-13T09:19:10.389Z,53.41
2022-09-13T09:21:39.768Z,53.41
2022-09-13T09:24:11.518Z,59.45
2022-09-13T09:26:40.518Z,59.45
2022-09-13T09:29:25.767Z,62.68
2022-09-13T09:32:19.665Z,69.04
2022-09-13T09:35:14.455Z,58.78
2022-09-13T09:37:45.853Z,64.21
2022-09-13T09:40:17.660Z,64.21
2022-09-13T09:42:49.813Z,58.00
2022-09-13T09:45:30.686Z,61.58
2022-09-13T09:48:02.565Z,61.93
2022-09-13T09:50:34.423Z,61.87
2022-09-13T09:53:15.814Z,65.52
2022-09-13T09:55:53.597Z,65.52
2022-09-13T09:58:43.817Z,73.48
2022-09-13T10:01:18.466Z,73.48
2022-09-13T10:03:53.055Z,76.75
2022-09-13T10:06:25.748Z,75.41
2022-09-13T10:09:09.520Z,75.41
2022-09-13T10:11:59.432Z,81.64
2022-09-13T10:14:40.338Z,83.18
2022-09-13T10:17:18.556Z,83.18
2022-09-13T10:20:02.363Z,87.67
2022-09-13T10:22:33.730Z,92.04
2022-09-13T10:25:27.307Z,92.04
2022-09-13T10:27:59.282Z,92.31
2022-09-13T10:30:31.178Z,94.76
2022-09-13T10:33:01.056Z,86.74
2022-09-13T10:35:31.272Z,85.07
2022-09-13T10:38:00.345Z,84.20
2022-09-13T10:40:33.892Z,78.26
2022-09-13T10:43:07.320Z,78.26
2022-09-13T10:45:37.132Z,81.32
2022-09-13T10:48:18.028Z,81.32
2022-09-13T10:51:11.134Z,79.06
2022-09-13T10:54:00.812Z,79.70
2022-09-13T10:56:29.814Z,78.93
2022-09-13T10:59:18.536Z,84.11
2022-09-13T11:02:23.908Z,86.51
2022-09-13T11:05:25.589Z,85.47
2022-09-13T11:08:13.069Z,85.47
2022-09-13T11:10:50.868Z,84.12
2022-09-13T11:13:37.427Z,80.35
2022-09-13T11:16:30.403Z,80.35
2022-09-13T11:19:37.153Z,76.23
2022-09-13T11:22:23.868Z,76.23
2022-09-13T11:25:04.843Z,78.53
2022-09-13T11:27:36.876Z,78.53
2022-09-13T11:30:20.636Z,81.48
2022-09-13T11:33:09.343Z,87.93
2022-09-13T11:35:53.317Z,91.04
2022-09-13T11:38:59.006Z,92.41
2022-09-13T11:41:55.474Z,92.41
2022-09-13T11:44:36.210Z,89.74
2022-09-13T11:47:27.473Z,85.40
2022-09-13T11:50:03.928Z,85.68
2022-09-13T11:52:48.496Z,92.33
2022-09-13T11:55:31.839Z,97.99
2022-09-13T11:58:06.706Z,100.00
2022-09-13T12:00:40.239Z,95.92
2022-09-13T12:03:15.342Z,98.37
2022-09-13T12:05:53.557Z,94.94
2022-09-13T12:08:43.435Z,94.94
2022-09-13T12:11:19.780Z,94.77
2022-09-13T12:13:52.327Z,90.58
2022-09-13T12:16:34.086Z,90.58
2022-09-13T12:19:03.504Z,90.04
2022-09-13T12:21:35.505Z,90.04
2022-09-13T12:24:19.866Z,89.14
2022-09-13T12:27:03.920Z,90.10
2022-09-13T12:29:50.820Z,91.43
2022-09-13T12:32:21.019Z,89.49
2022-09-13T12:34:59.081Z,89.49
2022-09-13T12:37:49.446Z,88.72
2022-09-13T12:40:23.984Z,88.72
2022-09-13T12:43:15.669Z,85.93
2022-09-13T12:45:58.270Z,87.12
2022-09-13T12:49:05.283Z,88.80
2022-09-13T12:51:58.727Z,83.36
2022-09-13T12:54:39.529Z,83.36
2022-09-13T12:57:40.148Z,84.65
2022-09-13T13:00:15.025Z,84.65
2022-09-13T13:02:54.717Z,84.95
2022-09-13T13:05:38.702Z,87.42
2022-09-13T13:08:10.734Z,87.42
2022-09-13T13:10:40.584Z,87.35
2022-09-13T13:13:15.290Z,85.58
2022-09-13T13:15:50.043Z,87.92
2022-09-13T13:18:27.460Z,87.99
2022-09-13T13:20:59.317Z,87.99
2022-09-13T13:23:36.870Z,86.76
2022-09-13T13:26:24.072Z,83.94
2022-09-13T13:29:15.913Z,83.94
2022-09-13T13:31:47.985Z,79.98
2022-09-13T13:34:19.904Z,79.98
2022-09-13T13:36:51.662Z,80.19
2022-09-13T13:39:29.772Z,80.79
2022-09-13T13:42:17.873Z,85.00
2022-09-13T13:44:49.917Z,82.02
2022-09-13T13:47:21.879Z,83.04
2022-09-13T13:49:56.499Z,85.58
2022-09-13T13:52:30.029Z,85.58
2022-09-13T13:55:31.992Z,89.82
2022-09-13T13:58:06.892Z,87.69
2022-09-13T14:00:37.897Z,90.71
2022-09-13T14:03:26.420Z,92.86
2022-09-13T14:06:01.090Z,94.14
2022-09-13T14:08:48.392Z,89.61
2022-09-13T14:11:40.049Z,91.62
2022-09-13T14:14:39.027Z,89.84
2022-09-13T14:17:32.084Z,89.78
2022-09-13T14:20:13.260Z,89.41
2022-09-13T14:22:42.253Z,90.00
2022-09-13T14:25:26.765Z,89.73
2022-09-13T14:27:58.617Z,83.14
2022-09-13T14:30:39.000Z,84.89
2022-09-13T14:33:09.730Z,81.34
2022-09-13T14:35:41.063Z,80.71
2022-09-13T14:38:25.524Z,82.40
2022-09-13T14:40:57.109Z,85.05
2022-09-13T14:43:28.884Z,86.14
2022-09-13T14:46:03.919Z,87.58
2022-09-13T14:48:35.751Z,89.58
2022-09-13T14:51:07.640Z,93.53
2022-09-13T14:53:37.752Z,96.97
2022-09-13T14:56:21.641Z,100.00
2022-09-13T14:58:53.703Z,100.00
2022-09-13T15:01:25.583Z,100.00
2022-09-13T15:03:59.317Z,100.00
2022-09-13T15:06:34.372Z,100.00
2022-09-13T15:09:14.954Z,100.00
2022-09-13T15:11:59.657Z,100.00
2022-09-13T15:14:33.395Z,100.00
2022-09-13T15:17:14.392Z,100.00
2022-09-13T15:19:46.333Z,100.00
2022-09-13T15:22:18.364Z,100.00
2022-09-13T15:24:50.867Z,100.00
2022-09-13T15:27:34.978Z,100.00
2022-09-13T15:30:06.701Z,100.00
2022-09-13T15:32:39.250Z,100.00
2022-09-13T15:35:32.236Z,100.00
2022-09-13T15:38:05.341Z,100.00
2022-09-13T15:40:37.328Z,100.00
2022-09-13T15:43:07.466Z,100.00
2022-09-13T15:45:36.479Z,100.00
2022-09-13T15:48:07.485Z,100.00
2022-09-13T15:50:38.390Z,100.00
2022-09-13T15:53:10.212Z,100.00
2022-09-13T15:55:40.992Z,100.00
2022-09-13T15:58:11.743Z,100.00
2022-09-13T16:00:40.865Z,100.00
2022-09-13T16:03:10.830Z,100.00
2022-09-13T16:05:39.817Z,100.00
2022-09-13T16:08:10.604Z,100.00
2022-09-13T16:10:39.753Z,100.00
2022-09-13T16:13:09.109Z,100.00
2022-09-13T16:15:38.069Z,100.00
2022-09-13T16:18:07.108Z,100.00
2022-09-13T16:20:36.172Z,100.00
2022-09-13T16:23:05.171Z,100.00
2022-09-13T16:25:35.201Z,100.00
2022-09-13T16:28:05.050Z,100.00
2022-09-13T16:30:34.314Z,100.00
2022-09-13T16:33:03.903Z,100.00
2022-09-13T16:35:33.906Z,100.00
2022-09-13T16:38:02.882Z,100.00
2022-09-13T16:40:31.867Z,100.00
2022-09-13T16:43:00.885Z,100.00
2022-09-13T16:45:29.869Z,100.00
2022-09-13T16:47:58.841Z,100.00
2022-09-13T16:50:30.112Z,100.00
2022-09-13T16:52:58.881Z,100.00
2022-09-13T16:55:28.108Z,100.00
2022-09-13T16:57:57.137Z,100.00
2022-09-13T17:00:27.905Z,100.00
2022-09-13T17:02:58.554Z,100.00
2022-09-13T17:05:28.884Z,100.00
2022-09-13T17:07:57.841Z,100.00
2022-09-13T17:10:27.195Z,100.00
2022-09-13T17:12:56.225Z,100.00
2022-09-13T17:15:25.344Z,100.00
2022-09-13T17:17:54.265Z,100.00
2022-09-13T17:20:23.291Z,100.00
2022-09-13T17:22:52.312Z,100.00
2022-09-13T17:25:21.324Z,100.00
2022-09-13T17:27:50.610Z,100.00
2022-09-13T17:30:19.951Z,100.00
2022-09-13T17:32:49.107Z,100.00
2022-09-13T17:35:18.244Z,100.00
2022-09-13T17:37:47.318Z,100.00
2022-09-13T17:40:16.419Z,100.00
2022-09-13T17:42:47.025Z,100.00
2022-09-13T17:45:16.089Z,100.00
2022-09-13T17:47:45.205Z,100.00
2022-09-13T17:50:14.470Z,100.00
2022-09-13T17:52:43.913Z,100.00
2022-09-13T17:55:13.223Z,100.00
2022-09-13T17:57:42.266Z,100.00
2022-09-13T18:00:15.426Z,100.00
2022-09-13T18:02:46.259Z,100.00
2022-09-13T18:05:15.247Z,100.00
2022-09-13T18:07:44.336Z,100.00
2022-09-13T18:10:38.782Z,100.00
2022-09-13T18:12:44.034Z,100.00
2022-09-13T18:15:13.477Z,100.00
2022-09-13T18:17:42.446Z,100.00
2022-09-13T18:20:11.845Z,100.00
2022-09-13T18:22:40.808Z,100.00
2022-09-13T18:25:09.917Z,100.00
2022-09-13T18:27:38.977Z,100.00
2022-09-13T18:30:08.541Z,100.00
2022-09-13T18:32:37.614Z,100.00
2022-09-13T18:35:07.462Z,100.00
2022-09-13T18:37:36.404Z,100.00
2022-09-13T18:40:07.763Z,100.00
2022-09-13T18:42:36.694Z,100.00
2022-09-13T18:45:07.117Z,100.00
2022-09-13T18:47:36.117Z,100.00
2022-09-13T18:50:08.161Z,100.00
2022-09-13T18:52:36.488Z,100.00
2022-09-13T18:55:05.753Z,100.00
2022-09-13T18:57:34.725Z,100.00
2022-09-13T19:00:04.508Z,100.00
2022-09-13T19:02:33.873Z,100.00
2022-09-13T19:05:06.878Z,100.00
2022-09-13T19:07:33.725Z,100.00
2022-09-13T19:10:02.699Z,100.00
2022-09-13T19:12:31.864Z,100.00
2022-09-13T19:15:00.865Z,100.00
2022-09-13T19:17:29.943Z,100.00
2022-09-13T19:19:59.224Z,100.00
2022-09-13T19:22:28.207Z,100.00
2022-09-13T19:24:57.199Z,100.00
2022-09-13T19:27:26.268Z,100.00
2022-09-13T19:29:55.235Z,100.00
2022-09-13T19:32:24.192Z,100.00
2022-09-13T19:34:53.229Z,100.00
2022-09-13T19:37:22.284Z,100.00
2022-09-13T19:39:51.460Z,100.00
2022-09-13T19:42:20.382Z,100.00
2022-09-13T19:44:49.386Z,100.00
2022-09-13T19:49:49.907Z,100.00
2022-09-13T19:52:19.109Z,100.00
2022-09-13T19:54:48.372Z,100.00
2022-09-13T19:57:17.407Z,100.00
2022-09-13T19:59:46.437Z,100.00
2022-09-13T20:02:15.673Z,100.00
2022-09-13T20:04:45.501Z,100.00
2022-09-13T20:07:14.705Z,100.00
2022-09-13T20:09:45.360Z,100.00
2022-09-13T20:12:15.162Z,100.00
2022-09-13T20:14:44.160Z,100.00
2022-09-13T20:17:13.110Z,100.00
2022-09-13T20:19:47.679Z,100.00
2022-09-13T20:22:12.977Z,100.00
2022-09-13T20:24:42.016Z,100.00
2022-09-13T20:27:11.036Z,100.00
2022-09-13T20:29:40.609Z,100.00
2022-09-13T20:32:09.778Z,100.00
2022-09-13T20:34:39.611Z,100.00
2022-09-13T20:37:08.620Z,100.00
2022-09-13T20:39:37.615Z,100.00
2022-09-13T20:42:07.082Z,100.00
2022-09-13T20:44:36.061Z,100.00
2022-09-13T20:47:05.494Z,100.00
2022-09-13T20:49:34.446Z,100.00
2022-09-13T20:52:03.724Z,100.00
2022-09-13T20:54:32.757Z,100.00
2022-09-13T20:57:01.696Z,100.00
2022-09-13T20:59:30.673Z,100.00
2022-09-13T21:01:59.800Z,100.00
2022-09-13T21:04:28.881Z,100.00
2022-09-13T21:07:16.103Z,100.00
2022-09-13T21:09:45.501Z,100.00
2022-09-13T21:12:15.784Z,100.00
2022-09-13T21:14:46.535Z,100.00
2022-09-13T21:17:15.625Z,100.00
2022-09-13T21:19:44.717Z,100.00
2022-09-13T21:22:13.891Z,100.00
2022-09-13T21:24:42.902Z,100.00
2022-09-13T21:27:12.163Z,100.00
2022-09-13T21:29:41.215Z,100.00
2022-09-13T21:32:10.646Z,100.00
2022-09-13T21:34:39.653Z,100.00
2022-09-13T21:37:08.640Z,100.00
2022-09-13T21:39:38.022Z,100.00
2022-09-13T21:42:07.442Z,100.00
2022-09-13T21:44:36.518Z,100.00
2022-09-13T21:47:05.457Z,100.00
2022-09-13T21:49:34.535Z,100.00
2022-09-13T21:52:04.002Z,100.00
2022-09-13T21:54:32.949Z,100.00
2022-09-13T21:57:02.001Z,100.00
2022-09-13T21:59:31.231Z,100.00
2022-09-13T22:02:01.140Z,100.00
2022-09-13T22:04:30.207Z,100.00
2022-09-13T22:06:59.281Z,100.00
2022-09-13T22:09:29.013Z,100.00
2022-09-13T22:11:59.475Z,100.00
2022-09-13T22:14:28.574Z,100.00
2022-09-13T22:16:57.679Z,100.00
2022-09-13T22:19:28.358Z,100.00
2022-09-13T22:21:59.730Z,100.00
2022-09-13T22:24:32.928Z,100.00
2022-09-13T22:27:02.281Z,100.00
2022-09-13T22:29:31.302Z,100.00
2022-09-13T22:32:00.393Z,100.00
2022-09-13T22:34:31.120Z,100.00
2022-09-13T22:37:00.371Z,100.00
2022-09-13T22:39:29.496Z,100.00
2022-09-13T22:41:58.447Z,100.00
2022-09-13T22:44:27.692Z,100.00
2022-09-13T22:46:58.339Z,100.00
2022-09-13T22:49:27.372Z,100.00
2022-09-13T22:51:56.332Z,100.00
2022-09-13T22:54:25.305Z,100.00
2022-09-13T22:56:54.327Z,100.00
2022-09-13T22:59:23.799Z,100.00
2022-09-13T23:01:53.333Z,100.00
2022-09-13T23:04:22.488Z,100.00
2022-09-13T23:06:51.460Z,100.00
2022-09-13T23:09:20.676Z,100.00
2022-09-13T23:11:49.624Z,100.00
2022-09-13T23:14:20.270Z,100.00
2022-09-13T23:16:51.913Z,100.00
2022-09-13T23:19:23.425Z,100.00
2022-09-13T23:21:54.081Z,100.00
2022-09-13T23:24:24.434Z,100.00
2022-09-13T23:26:56.736Z,100.00
2022-09-13T23:29:25.958Z,100.00
2022-09-13T23:31:55.928Z,100.00
2022-09-13T23:34:25.417Z,100.00
2022-09-13T23:36:55.194Z,100.00
2022-09-13T23:39:24.621Z,100.00
2022-09-13T23:41:53.947Z,100.00
2022-09-13T23:44:22.912Z,100.00
2022-09-13T23:46:52.647Z,100.00
2022-09-13T23:49:22.030Z,100.00
2022-09-13T23:51:51.428Z,100.00
2022-09-13T23:54:20.570Z,100.00
2022-09-13T23:56:49.615Z,100.00
2022-09-13T23:59:18.783Z,100.00
